Time;durP1;ratioP1;P1;durP2;ratioP2;P2;SDS_P1;SDS_P2;PMS_P1;PMS_P2;Temp;Humidity;BMP_temperature;BMP_pressure;BME280_temperature;BME280_humidity;BME280_pressure;Samples;Min_cycle;Max_cycle;Signal;HPM_P1;HPM_P2
2022/03/08 00:00:31;;;;;;;14.07;5.68;;;0.20;99.90;;;;;;5106780;27;20096;-86
2022/03/08 00:02:58;;;;;;;11.88;5.55;;;0.20;99.90;;;;;;5127652;27;20563;-86
2022/03/08 00:05:25;;;;;;;11.40;5.90;;;0.90;99.90;;;;;;5101901;27;20039;-86
2022/03/08 00:07:51;;;;;;;10.88;5.78;;;0.70;99.90;;;;;;5121673;27;20035;-86
2022/03/08 00:10:17;;;;;;;13.05;6.00;;;0.20;99.90;;;;;;5102118;27;20113;-86
2022/03/08 00:12:46;;;;;;;10.88;5.47;;;0.30;99.90;;;;;;5113432;27;20057;-86
2022/03/08 00:15:18;;;;;;;11.48;5.53;;;0.30;99.90;;;;;;5104448;27;20082;-86
2022/03/08 00:17:44;;;;;;;10.52;5.28;;;0.30;99.90;;;;;;5101414;27;21610;-86
2022/03/08 00:20:12;;;;;;;12.75;5.78;;;0.30;99.90;;;;;;5082495;27;20058;-86
2022/03/08 00:22:39;;;;;;;10.77;5.30;;;0.30;99.90;;;;;;5113447;27;20062;-86
2022/03/08 00:25:07;;;;;;;10.90;5.60;;;0.30;99.90;;;;;;5103172;27;20097;-86
2022/03/08 00:27:33;;;;;;;10.68;5.13;;;0.30;99.90;;;;;;5101189;27;20039;-86
2022/03/08 00:29:59;;;;;;;9.65;4.88;;;0.30;99.90;;;;;;5111597;27;20099;-87
2022/03/08 00:32:24;;;;;;;11.10;5.25;;;0.30;99.90;;;;;;5109140;27;20053;-87
2022/03/08 00:34:51;;;;;;;10.57;5.40;;;0.20;99.90;;;;;;5110376;27;20042;-86
2022/03/08 00:37:16;;;;;;;12.23;5.78;;;0.20;99.90;;;;;;5112695;27;20667;-86
2022/03/08 00:39:42;;;;;;;11.40;5.55;;;0.10;99.90;;;;;;5117183;27;20573;-86
2022/03/08 00:42:11;;;;;;;14.40;5.60;;;0.10;99.90;;;;;;5102309;27;20035;-87
2022/03/08 00:44:41;;;;;;;13.77;6.53;;;0.70;99.90;;;;;;5101761;27;20372;-87
2022/03/08 00:47:09;;;;;;;12.10;5.72;;;-0.10;99.90;;;;;;5115963;27;20064;-87
2022/03/08 00:49:35;;;;;;;11.77;5.93;;;-0.10;99.90;;;;;;5122920;27;20087;-85
2022/03/08 00:52:02;;;;;;;13.85;5.47;;;-0.10;99.90;;;;;;5110111;27;20050;-86
2022/03/08 00:54:28;;;;;;;10.18;5.32;;;-0.20;99.90;;;;;;5090462;27;20066;-87
2022/03/08 00:56:54;;;;;;;10.40;5.38;;;-0.20;99.90;;;;;;5097084;27;20472;-87
2022/03/08 00:59:23;;;;;;;11.80;5.70;;;-0.30;99.90;;;;;;5116630;27;20035;-87
2022/03/08 01:01:48;;;;;;;10.20;5.18;;;-0.30;99.90;;;;;;5105208;27;20399;-87
2022/03/08 01:04:15;;;;;;;11.80;5.13;;;-0.30;99.90;;;;;;5117552;27;20047;-87
2022/03/08 01:06:42;;;;;;;12.32;5.88;;;-0.30;99.90;;;;;;5125717;27;20047;-85
2022/03/08 01:09:11;;;;;;;11.85;5.93;;;-0.30;99.90;;;;;;5103583;27;20043;-86
2022/03/08 01:11:39;;;;;;;11.77;6.35;;;-0.40;99.90;;;;;;5101434;27;20698;-87
2022/03/08 01:14:06;;;;;;;11.55;5.68;;;0.00;99.90;;;;;;5118365;27;20047;-86
2022/03/08 01:16:33;;;;;;;11.38;5.63;;;-0.40;99.90;;;;;;5118358;27;20043;-86
2022/03/08 01:18:59;;;;;;;13.73;5.85;;;-0.40;99.90;;;;;;5123034;27;20039;-87
2022/03/08 01:21:25;;;;;;;13.40;6.15;;;-0.40;99.90;;;;;;5110118;27;20042;-87
2022/03/08 01:23:51;;;;;;;12.80;5.75;;;-0.50;99.90;;;;;;5123896;27;20034;-86
2022/03/08 01:26:16;;;;;;;11.48;5.85;;;-0.50;99.90;;;;;;5097575;27;20487;-86
2022/03/08 01:28:42;;;;;;;11.82;5.43;;;-0.50;99.90;;;;;;5124034;27;20834;-86
2022/03/08 01:31:08;;;;;;;13.23;6.07;;;-0.50;99.90;;;;;;5126653;27;20083;-86
2022/03/08 01:33:35;;;;;;;13.85;6.40;;;-0.20;99.90;;;;;;5112797;27;20108;-86
2022/03/08 01:36:01;;;;;;;12.07;6.38;;;-0.50;99.90;;;;;;5109679;27;20129;-86
2022/03/08 01:38:26;;;;;;;13.07;6.22;;;0.20;99.90;;;;;;5097728;27;20164;-86
2022/03/08 01:40:52;;;;;;;10.77;6.18;;;-0.60;99.90;;;;;;5108015;27;20130;-86
2022/03/08 01:43:18;;;;;;;18.52;6.25;;;-0.60;99.90;;;;;;5112412;27;20038;-87
2022/03/08 01:45:44;;;;;;;11.07;5.90;;;-0.60;99.90;;;;;;5126490;27;20249;-87
2022/03/08 01:48:09;;;;;;;12.82;6.57;;;-0.60;99.90;;;;;;5111482;27;20039;-86
2022/03/08 01:50:35;;;;;;;12.90;6.60;;;-0.60;99.90;;;;;;5112977;27;20038;-86
2022/03/08 01:53:02;;;;;;;13.18;6.55;;;-0.60;99.90;;;;;;5112761;27;20035;-86
2022/03/08 01:55:28;;;;;;;12.90;6.38;;;-0.60;99.90;;;;;;5111313;27;20050;-86
2022/03/08 01:57:54;;;;;;;12.30;6.00;;;-0.60;99.90;;;;;;5127641;27;20054;-86
2022/03/08 02:00:27;;;;;;;11.93;6.43;;;-0.60;99.90;;;;;;5130783;27;20043;-85
2022/03/08 02:02:53;;;;;;;11.18;6.03;;;-0.60;99.90;;;;;;5130446;27;20146;-86
2022/03/08 02:05:20;;;;;;;12.05;6.60;;;-0.60;99.90;;;;;;5127257;27;20121;-86
2022/03/08 02:07:46;;;;;;;13.75;6.15;;;-0.50;99.90;;;;;;5107080;27;20167;-86
2022/03/08 02:10:12;;;;;;;12.00;6.05;;;-0.60;99.90;;;;;;5112304;27;20035;-86
2022/03/08 02:12:38;;;;;;;14.07;6.30;;;-0.60;99.90;;;;;;5113315;27;20050;-86
2022/03/08 02:15:19;;;;;;;14.27;6.40;;;-0.60;99.90;;;;;;5110774;27;20084;-86
2022/03/08 02:17:45;;;;;;;13.00;6.35;;;-0.70;99.90;;;;;;5126084;27;20069;-86
2022/03/08 02:20:12;;;;;;;12.10;6.32;;;0.80;99.90;;;;;;5129795;27;20038;-85
2022/03/08 02:22:46;;;;;;;15.15;7.57;;;-0.70;99.90;;;;;;5128807;27;20046;-86
2022/03/08 02:25:13;;;;;;;14.02;7.18;;;-0.50;99.90;;;;;;5124376;27;20035;-87
2022/03/08 02:27:44;;;;;;;13.85;6.82;;;-0.80;99.90;;;;;;5113666;27;20043;-87
2022/03/08 02:30:11;;;;;;;15.25;6.57;;;-0.80;99.90;;;;;;5129143;27;20448;-86
2022/03/08 02:32:37;;;;;;;14.40;7.30;;;-0.80;99.90;;;;;;5124626;27;20073;-86
2022/03/08 02:35:12;;;;;;;14.32;7.13;;;-0.80;99.90;;;;;;5111246;27;20047;-86
2022/03/08 02:37:40;;;;;;;15.32;7.32;;;-0.80;99.90;;;;;;5125547;27;20059;-86
2022/03/08 02:40:12;;;;;;;13.95;6.85;;;-0.80;99.90;;;;;;5107673;27;20035;-86
2022/03/08 02:42:37;;;;;;;;;;;-0.80;99.90;;;;;;5125809;27;20039;-87
2022/03/08 02:45:05;;;;;;;13.90;6.50;;;-0.80;99.90;;;;;;5105093;27;19968;-87
2022/03/08 02:47:31;;;;;;;12.70;6.65;;;-0.80;99.90;;;;;;5128311;27;20100;-86
2022/03/08 02:49:56;;;;;;;12.98;6.75;;;-0.80;99.90;;;;;;5128016;27;20482;-86
2022/03/08 02:52:22;;;;;;;14.52;7.43;;;-0.80;99.90;;;;;;5107811;27;20526;-86
2022/03/08 02:54:48;;;;;;;12.77;7.35;;;-0.80;99.90;;;;;;5110112;27;20058;-86
2022/03/08 02:57:14;;;;;;;14.07;7.15;;;-1.30;99.90;;;;;;5112353;27;20050;-86
2022/03/08 02:59:39;;;;;;;15.43;7.35;;;-0.80;99.90;;;;;;5118154;27;20838;-86
2022/03/08 03:02:05;;;;;;;14.93;7.65;;;-0.80;99.90;;;;;;5099183;27;20395;-85
2022/03/08 03:04:32;;;;;;;14.60;7.55;;;-0.80;99.90;;;;;;5096769;27;20046;-85
2022/03/08 03:06:58;;;;;;;14.68;6.72;;;-0.80;99.90;;;;;;5095846;27;20054;-85
2022/03/08 03:09:24;;;;;;;13.90;7.70;;;-0.90;99.90;;;;;;5123651;27;20050;-86
2022/03/08 03:11:50;;;;;;;13.23;7.22;;;-0.80;99.90;;;;;;5107191;27;20046;-86
2022/03/08 03:14:16;;;;;;;14.63;7.95;;;-0.70;99.90;;;;;;5110929;27;20502;-85
2022/03/08 03:16:41;;;;;;;13.70;7.88;;;-0.90;99.90;;;;;;5111563;27;20076;-86
2022/03/08 03:19:07;;;;;;;14.27;7.32;;;-0.90;99.90;;;;;;5112497;27;20038;-86
2022/03/08 03:21:33;;;;;;;16.63;8.00;;;-0.90;99.90;;;;;;5129443;27;20046;-86
2022/03/08 03:23:59;;;;;;;17.05;8.32;;;-0.90;99.90;;;;;;5127741;27;20038;-86
2022/03/08 03:26:24;;;;;;;15.88;7.93;;;-0.90;99.90;;;;;;5126786;27;20499;-85
2022/03/08 03:28:50;;;;;;;14.65;7.60;;;-0.90;99.90;;;;;;5112152;27;20047;-86
2022/03/08 03:31:16;;;;;;;15.40;7.65;;;-0.90;99.90;;;;;;5106361;27;20496;-85
2022/03/08 03:33:42;;;;;;;15.77;8.38;;;0.40;99.90;;;;;;5109640;27;20038;-86
2022/03/08 03:36:08;;;;;;;18.45;8.25;;;-0.90;99.90;;;;;;5128078;27;20072;-86
2022/03/08 03:38:34;;;;;;;16.10;8.27;;;-0.90;99.90;;;;;;5128497;27;20129;-85
2022/03/08 03:41:00;;;;;;;16.02;7.68;;;-0.80;99.90;;;;;;5111001;27;20123;-87
2022/03/08 03:43:25;;;;;;;14.25;7.78;;;-1.00;99.90;;;;;;5111532;27;20039;-86
2022/03/08 03:45:51;;;;;;;14.60;7.82;;;-0.30;99.90;;;;;;5128016;27;20126;-85
2022/03/08 03:48:16;;;;;;;16.67;8.85;;;-1.00;99.90;;;;;;5110421;27;20066;-86
2022/03/08 03:50:42;;;;;;;16.08;7.47;;;-1.00;99.90;;;;;;5123855;27;20039;-86
2022/03/08 03:53:08;;;;;;;16.05;8.25;;;-1.00;99.90;;;;;;5111673;27;20047;-86
2022/03/08 03:55:34;;;;;;;15.75;9.35;;;-1.00;99.90;;;;;;5109741;27;20436;-85
2022/03/08 03:58:00;;;;;;;14.80;7.88;;;-1.10;99.90;;;;;;5110394;27;20114;-86
2022/03/08 04:00:26;;;;;;;15.70;8.20;;;-2.10;99.90;;;;;;5111019;27;20045;-86
2022/03/08 04:02:52;;;;;;;17.67;8.55;;;-1.20;99.90;;;;;;5109263;27;20445;-86
2022/03/08 04:05:18;;;;;;;15.52;8.45;;;-1.10;99.90;;;;;;5127979;27;20038;-86
2022/03/08 04:07:43;;;;;;;18.85;9.27;;;-1.10;99.90;;;;;;5107539;27;20049;-86
2022/03/08 04:10:11;;;;;;;15.95;8.25;;;-1.10;99.90;;;;;;5107406;27;20440;-85
2022/03/08 04:12:37;;;;;;;18.80;8.38;;;-1.10;99.90;;;;;;5109484;27;20410;-85
2022/03/08 04:15:03;;;;;;;16.52;8.85;;;-1.10;99.90;;;;;;5108173;27;20061;-86
2022/03/08 04:17:29;;;;;;;17.13;8.77;;;-1.20;99.90;;;;;;5111194;27;20046;-85
2022/03/08 04:19:55;;;;;;;16.67;8.63;;;-1.20;99.90;;;;;;5108365;27;20609;-86
2022/03/08 04:22:21;;;;;;;16.75;8.95;;;-1.20;99.90;;;;;;5106110;27;20394;-86
2022/03/08 04:24:46;;;;;;;15.63;8.43;;;-1.20;99.90;;;;;;5104103;27;20032;-86
2022/03/08 04:27:12;;;;;;;19.13;9.32;;;-1.20;99.90;;;;;;5108917;27;20794;-85
2022/03/08 04:29:38;;;;;;;16.75;8.63;;;-1.20;99.90;;;;;;5109629;27;20125;-85
2022/03/08 04:32:05;;;;;;;17.33;9.18;;;-1.20;99.90;;;;;;5107660;27;20079;-85
2022/03/08 04:34:30;;;;;;;19.58;9.70;;;-1.20;99.90;;;;;;5108690;27;20031;-86
2022/03/08 04:36:56;;;;;;;19.00;9.30;;;-1.20;99.90;;;;;;5111439;27;20043;-86
2022/03/08 04:39:22;;;;;;;18.67;9.40;;;-1.20;99.90;;;;;;5127034;27;20073;-86
2022/03/08 04:41:49;;;;;;;21.10;9.90;;;-1.20;99.90;;;;;;5105546;27;20038;-86
2022/03/08 04:44:14;;;;;;;25.15;9.95;;;-1.20;99.90;;;;;;5109391;27;20085;-86
2022/03/08 04:46:40;;;;;;;16.63;9.02;;;-1.20;99.90;;;;;;5107670;27;20075;-86
2022/03/08 04:49:06;;;;;;;18.63;10.23;;;-1.20;99.90;;;;;;5107975;27;20031;-86
2022/03/08 04:51:32;;;;;;;20.33;9.43;;;-1.10;99.90;;;;;;5110087;27;20047;-86
2022/03/08 04:53:58;;;;;;;17.10;9.45;;;-0.60;99.90;;;;;;5111476;27;20650;-85
2022/03/08 04:56:23;;;;;;;19.38;9.93;;;0.10;99.90;;;;;;5113694;27;20448;-86
2022/03/08 04:58:49;;;;;;;18.23;9.75;;;-1.30;99.90;;;;;;5108461;27;20134;-87
2022/03/08 05:01:15;;;;;;;21.30;10.13;;;-1.40;99.90;;;;;;5117169;27;20107;-87
2022/03/08 05:03:41;;;;;;;20.17;10.70;;;-1.30;99.90;;;;;;5111756;27;20125;-87
2022/03/08 05:06:07;;;;;;;20.25;10.30;;;-1.30;99.90;;;;;;5129895;27;20077;-86
2022/03/08 05:08:33;;;;;;;18.33;9.68;;;-1.30;99.90;;;;;;5099906;27;20066;-86
2022/03/08 05:10:59;;;;;;;19.73;10.27;;;-1.20;99.90;;;;;;5117720;27;20042;-86
2022/03/08 05:13:25;;;;;;;16.92;9.23;;;-1.20;99.90;;;;;;5118924;27;20488;-86
2022/03/08 05:15:51;;;;;;;18.63;9.88;;;-1.20;99.90;;;;;;5106374;27;20051;-86
2022/03/08 05:18:18;;;;;;;18.77;10.05;;;-1.20;99.90;;;;;;5109477;27;20112;-85
2022/03/08 05:20:43;;;;;;;19.42;10.48;;;-1.00;99.90;;;;;;5092880;27;20047;-86
2022/03/08 05:23:09;;;;;;;22.48;10.27;;;-1.20;99.90;;;;;;5079086;27;20187;-84
2022/03/08 05:25:35;;;;;;;21.65;10.65;;;-1.20;99.90;;;;;;5078870;27;20047;-85
2022/03/08 05:28:01;;;;;;;19.45;10.00;;;-1.30;99.90;;;;;;5086377;27;20043;-83
2022/03/08 05:30:26;;;;;;;20.55;10.75;;;-1.20;99.90;;;;;;5080091;27;20046;-86
2022/03/08 05:32:52;;;;;;;22.58;11.50;;;-1.20;99.90;;;;;;5078604;27;20043;-86
2022/03/08 05:35:18;;;;;;;21.10;10.95;;;-1.20;99.90;;;;;;5080103;27;20399;-84
2022/03/08 05:37:44;;;;;;;21.55;10.10;;;-1.10;99.90;;;;;;5078834;27;20039;-86
2022/03/08 05:40:10;;;;;;;22.25;10.73;;;-1.00;99.90;;;;;;5068725;27;20107;-87
2022/03/08 05:42:39;;;;;;;18.92;10.43;;;-1.10;99.90;;;;;;5084061;27;20031;-86
2022/03/08 05:45:07;;;;;;;23.95;11.05;;;-1.10;99.90;;;;;;5073695;27;20039;-87
2022/03/08 05:47:34;;;;;;;22.35;11.02;;;-1.10;99.90;;;;;;5090921;27;20035;-87
2022/03/08 05:50:00;;;;;;;23.80;11.52;;;-1.10;99.90;;;;;;5110886;27;20467;-87
2022/03/08 05:52:26;;;;;;;20.33;10.43;;;-1.10;99.90;;;;;;5092940;27;20039;-87
2022/03/08 05:54:51;;;;;;;23.23;11.00;;;-1.10;99.90;;;;;;5092310;27;20134;-87
2022/03/08 05:57:17;;;;;;;21.00;10.80;;;-0.30;99.90;;;;;;5094855;27;20623;-86
2022/03/08 05:59:44;;;;;;;23.88;11.18;;;-1.10;99.90;;;;;;5094991;27;20050;-87
2022/03/08 06:02:11;;;;;;;22.55;10.73;;;-1.10;99.90;;;;;;5108219;27;20126;-86
2022/03/08 06:04:36;;;;;;;21.30;11.73;;;-1.10;99.90;;;;;;5105120;28;20035;-87
2022/03/08 06:07:02;;;;;;;21.00;11.55;;;-1.20;99.90;;;;;;5090844;27;20039;-87
2022/03/08 06:09:28;;;;;;;24.38;11.20;;;-1.10;99.90;;;;;;5074719;27;20122;-86
2022/03/08 06:11:54;;;;;;;24.33;11.35;;;-1.20;99.90;;;;;;5085135;27;20059;-86
2022/03/08 06:14:21;;;;;;;23.65;11.05;;;-1.20;99.90;;;;;;5105738;28;20058;-86
2022/03/08 06:16:46;;;;;;;24.17;11.55;;;-1.20;99.90;;;;;;5101249;28;20080;-86
2022/03/08 06:19:12;;;;;;;24.55;11.02;;;-0.40;99.90;;;;;;5088973;28;20090;-87
2022/03/08 06:21:38;;;;;;;20.77;10.75;;;-1.20;99.90;;;;;;5078363;28;20040;-87
2022/03/08 06:24:04;;;;;;;21.60;11.15;;;0.20;99.90;;;;;;5066949;28;20050;-85
2022/03/08 06:26:31;;;;;;;24.48;11.02;;;-1.20;99.90;;;;;;5092039;28;20078;-85
2022/03/08 06:28:57;;;;;;;23.50;11.35;;;-1.20;99.90;;;;;;5096676;28;20075;-85
2022/03/08 06:31:22;;;;;;;21.30;11.25;;;-1.20;99.90;;;;;;5094543;28;20466;-86
2022/03/08 06:33:48;;;;;;;22.50;11.65;;;-1.20;99.90;;;;;;5075305;28;20390;-85
2022/03/08 06:36:14;;;;;;;21.40;10.98;;;-1.10;99.90;;;;;;5088478;27;20043;-85
2022/03/08 06:38:40;;;;;;;24.58;11.65;;;-1.10;99.90;;;;;;5092357;27;21003;-86
2022/03/08 06:41:06;;;;;;;22.58;12.05;;;-1.20;99.90;;;;;;5071877;27;20046;-84
2022/03/08 06:43:32;;;;;;;24.20;11.43;;;-1.10;99.90;;;;;;5063821;28;20716;-85
2022/03/08 06:45:57;;;;;;;20.63;10.98;;;-1.00;99.90;;;;;;5099388;27;20051;-86
2022/03/08 06:48:23;;;;;;;24.60;11.40;;;-1.00;99.90;;;;;;5092255;27;20043;-87
2022/03/08 06:50:52;;;;;;;23.20;11.48;;;-0.20;99.90;;;;;;5090043;27;20133;-86
2022/03/08 06:53:18;;;;;;;19.95;11.00;;;-0.80;99.90;;;;;;5072243;28;20515;-86
2022/03/08 06:55:43;;;;;;;27.45;12.38;;;-0.80;99.90;;;;;;5065242;28;20098;-85
2022/03/08 06:58:09;;;;;;;23.25;12.65;;;-0.70;99.90;;;;;;5069564;28;20617;-87
2022/03/08 07:00:35;;;;;;;19.00;10.50;;;-0.70;99.90;;;;;;5068755;27;20070;-87
2022/03/08 07:03:01;;;;;;;21.67;11.55;;;-0.60;99.90;;;;;;5057705;28;20046;-87
2022/03/08 07:05:27;;;;;;;24.92;12.10;;;-0.50;99.90;;;;;;5068574;28;20047;-87
2022/03/08 07:07:53;;;;;;;22.75;10.98;;;-0.20;99.90;;;;;;5082677;28;21703;-87
2022/03/08 07:10:18;;;;;;;23.60;12.27;;;-0.30;99.90;;;;;;5075754;28;20455;-87
2022/03/08 07:12:44;;;;;;;21.98;11.48;;;0.00;99.90;;;;;;5102521;27;20054;-87
2022/03/08 07:15:10;;;;;;;20.63;10.30;;;1.10;99.90;;;;;;5026175;27;2062252;-88
2022/03/08 07:17:36;;;;;;;22.23;10.55;;;2.50;99.90;;;;;;5107704;27;20280;-86
2022/03/08 07:20:03;;;;;;;22.95;11.05;;;2.90;99.90;;;;;;5119578;27;20042;-86
2022/03/08 07:22:30;;;;;;;22.65;10.13;;;4.60;99.90;;;;;;5108907;27;20034;-87
2022/03/08 07:24:55;;;;;;;18.42;10.00;;;4.90;99.90;;;;;;5126244;27;20095;-87
2022/03/08 07:27:21;;;;;;;18.33;9.93;;;5.40;99.90;;;;;;5108450;27;20054;-88
2022/03/08 07:29:47;;;;;;;18.23;9.60;;;6.20;99.90;;;;;;5108433;27;20086;-87
2022/03/08 07:32:13;;;;;;;17.42;9.85;;;6.90;99.90;;;;;;5126190;27;20038;-86
2022/03/08 07:34:39;;;;;;;18.10;10.00;;;7.90;99.90;;;;;;5109396;27;20041;-86
2022/03/08 07:37:04;;;;;;;18.95;9.40;;;8.60;99.90;;;;;;5110460;27;20134;-85
2022/03/08 07:39:30;;;;;;;19.73;9.88;;;9.40;99.90;;;;;;5125442;27;20098;-86
2022/03/08 07:41:55;;;;;;;16.00;8.40;;;9.10;99.90;;;;;;5109402;27;20035;-86
2022/03/08 07:44:24;;;;;;;16.80;8.70;;;10.70;99.90;;;;;;5108976;27;20039;-84
2022/03/08 07:46:53;;;;;;;15.43;8.40;;;9.90;99.90;;;;;;5125448;27;20043;-88
2022/03/08 07:49:22;;;;;;;17.80;8.85;;;9.00;99.90;;;;;;5126411;27;20448;-85
2022/03/08 07:51:49;;;;;;;16.55;8.68;;;9.50;99.90;;;;;;5106059;27;20041;-85
2022/03/08 07:54:15;;;;;;;19.30;8.60;;;11.10;99.90;;;;;;5124202;27;20046;-84
2022/03/08 07:56:40;;;;;;;14.82;8.20;;;10.20;98.20;;;;;;5126519;27;20051;-84
2022/03/08 07:59:06;;;;;;;16.92;8.68;;;10.40;97.20;;;;;;5108041;27;20034;-84
2022/03/08 08:01:32;;;;;;;14.68;7.93;;;11.50;98.50;;;;;;5124235;27;20034;-84
2022/03/08 08:03:57;;;;;;;14.07;8.80;;;10.80;96.80;;;;;;5101952;27;20114;-83
2022/03/08 08:06:23;;;;;;;17.38;9.13;;;11.30;91.00;;;;;;5099516;27;20087;-83
2022/03/08 08:08:52;;;;;;;15.68;8.43;;;11.60;92.60;;;;;;5108831;27;20106;-84
2022/03/08 08:11:17;;;;;;;16.50;8.40;;;10.90;89.80;;;;;;5108873;27;20052;-83
2022/03/08 08:13:43;;;;;;;17.63;9.30;;;11.00;91.60;;;;;;5122365;27;20034;-83
2022/03/08 08:16:09;;;;;;;17.38;8.32;;;8.40;92.50;;;;;;5080365;27;20664;-83
2022/03/08 08:18:34;;;;;;;14.68;8.65;;;8.50;95.80;;;;;;5102065;27;20752;-83
2022/03/08 08:21:01;;;;;;;15.30;8.63;;;8.10;96.20;;;;;;5096379;28;20091;-84
2022/03/08 08:23:27;;;;;;;16.73;8.75;;;6.60;98.50;;;;;;5081729;28;20047;-84
2022/03/08 08:25:53;;;;;;;15.48;8.45;;;6.20;99.90;;;;;;5080994;28;20613;-83
2022/03/08 08:28:22;;;;;;;15.05;7.85;;;5.90;99.90;;;;;;5079932;28;20047;-83
2022/03/08 08:30:47;;;;;;;16.25;8.93;;;6.80;99.90;;;;;;5073987;28;20047;-83
2022/03/08 08:33:13;;;;;;;15.82;8.75;;;5.70;99.90;;;;;;5090671;28;20088;-84
2022/03/08 08:35:39;;;;;;;14.90;8.95;;;5.60;99.90;;;;;;5084436;28;20126;-85
2022/03/08 08:38:05;;;;;;;14.88;8.90;;;5.60;99.90;;;;;;5077340;28;20048;-83
2022/03/08 08:40:34;;;;;;;16.77;8.77;;;5.60;99.90;;;;;;5081533;28;20787;-84
2022/03/08 08:43:00;;;;;;;18.95;8.77;;;5.70;99.90;;;;;;5084470;28;20077;-82
2022/03/08 08:45:25;;;;;;;14.90;8.55;;;5.70;99.90;;;;;;5081200;28;20039;-84
2022/03/08 08:47:51;;;;;;;14.30;8.63;;;5.80;99.90;;;;;;5100994;28;20043;-81
2022/03/08 08:50:17;;;;;;;14.25;8.40;;;5.90;99.90;;;;;;5098778;28;20048;-82
2022/03/08 08:52:43;;;;;;;13.32;7.85;;;5.90;99.90;;;;;;5099234;28;20619;-85
2022/03/08 08:55:10;;;;;;;12.93;7.88;;;5.60;99.90;;;;;;5085709;28;20225;-85
2022/03/08 08:57:36;;;;;;;13.27;8.15;;;6.10;99.90;;;;;;5102264;28;20039;-83
2022/03/08 09:00:03;;;;;;;13.15;7.85;;;6.20;99.90;;;;;;5082593;28;20051;-83
2022/03/08 09:02:29;;;;;;;13.93;8.75;;;6.40;99.90;;;;;;5100221;28;20100;-83
2022/03/08 09:04:54;;;;;;;12.20;7.68;;;6.50;99.90;;;;;;5104367;28;20396;-84
2022/03/08 09:07:23;;;;;;;12.95;7.80;;;6.50;99.90;;;;;;5082858;28;20050;-84
2022/03/08 09:09:49;;;;;;;13.63;7.80;;;6.60;99.90;;;;;;5097810;28;20039;-83
2022/03/08 09:12:16;;;;;;;14.50;7.93;;;6.70;99.90;;;;;;5081810;28;20134;-83
2022/03/08 09:14:42;;;;;;;12.32;7.43;;;6.90;99.90;;;;;;5088588;27;20139;-86
2022/03/08 09:17:08;;;;;;;15.48;8.57;;;6.80;99.90;;;;;;5091135;27;20107;-84
2022/03/08 09:19:34;;;;;;;13.38;7.72;;;7.00;99.90;;;;;;5107298;27;20093;-85
2022/03/08 09:22:00;;;;;;;13.85;7.70;;;7.50;99.90;;;;;;5120024;27;20039;-84
2022/03/08 09:24:25;;;;;;;13.13;8.05;;;7.10;99.90;;;;;;5121467;27;20043;-85
2022/03/08 09:26:51;;;;;;;11.32;7.22;;;7.20;99.90;;;;;;5104851;27;20062;-84
2022/03/08 09:29:17;;;;;;;12.43;7.45;;;7.20;98.30;;;;;;5122406;27;20085;-85
2022/03/08 09:31:43;;;;;;;12.23;6.93;;;7.70;97.80;;;;;;5101734;27;20049;-84
2022/03/08 09:34:09;;;;;;;11.05;6.85;;;7.20;98.40;;;;;;5120681;27;20043;-85
2022/03/08 09:36:36;;;;;;;13.18;7.53;;;7.30;97.50;;;;;;5104760;27;20674;-84
2022/03/08 09:39:03;;;;;;;14.18;7.57;;;7.30;96.80;;;;;;5126224;27;20051;-84
2022/03/08 09:41:29;;;;;;;11.73;6.78;;;7.30;96.10;;;;;;5111513;27;20641;-88
2022/03/08 09:43:55;;;;;;;12.23;7.10;;;7.40;97.20;;;;;;5108701;27;20115;-84
2022/03/08 09:46:21;;;;;;;13.65;7.63;;;7.50;98.00;;;;;;5110278;27;20797;-84
2022/03/08 09:48:46;;;;;;;11.63;6.80;;;8.00;97.00;;;;;;5124254;27;20066;-85
2022/03/08 09:51:14;;;;;;;11.02;6.38;;;7.70;96.70;;;;;;5111663;27;20045;-84
2022/03/08 09:53:44;;;;;;;11.60;6.65;;;7.80;94.30;;;;;;5109068;27;20114;-85
2022/03/08 09:56:10;;;;;;;12.48;6.53;;;7.80;92.30;;;;;;5110445;27;20129;-83
2022/03/08 09:58:37;;;;;;;10.68;6.70;;;7.80;93.40;;;;;;5110500;27;20109;-84
2022/03/08 10:01:04;;;;;;;11.40;6.28;;;7.80;93.10;;;;;;5108540;27;20043;-83
2022/03/08 10:03:42;;;;;;;12.25;6.05;;;7.90;92.50;;;;;;5122408;27;20448;-84
2022/03/08 10:06:08;;;;;;;12.07;6.28;;;8.00;92.80;;;;;;5124787;27;20087;-84
2022/03/08 10:08:34;;;;;;;9.77;6.22;;;8.00;93.70;;;;;;5111139;27;20043;-84
2022/03/08 10:11:03;;;;;;;11.18;6.40;;;8.00;92.00;;;;;;5109484;27;20123;-85
2022/03/08 10:13:40;;;;;;;10.13;5.82;;;8.10;91.80;;;;;;5124050;27;20035;-85
2022/03/08 10:16:48;;;;;;;10.05;5.30;;;8.20;90.80;;;;;;5109857;27;20050;-85
2022/03/08 10:19:14;;;;;;;9.95;5.28;;;8.40;90.20;;;;;;5107445;27;20043;-84
2022/03/08 10:21:43;;;;;;;8.40;5.10;;;8.20;87.60;;;;;;5107684;27;20414;-84
2022/03/08 10:24:16;;;;;;;9.20;5.22;;;8.10;87.90;;;;;;5109447;27;20034;-86
2022/03/08 10:27:05;;;;;;;12.02;6.13;;;8.20;82.40;;;;;;5127192;27;20066;-86
2022/03/08 10:29:34;;;;;;;8.70;5.30;;;8.20;81.90;;;;;;5105451;27;20350;-83
2022/03/08 10:32:03;;;;;;;9.23;5.05;;;8.20;83.90;;;;;;5128040;27;20047;-84
2022/03/08 10:34:29;;;;;;;9.68;5.53;;;8.20;83.90;;;;;;5109573;27;20038;-83
2022/03/08 10:37:08;;;;;;;9.32;4.93;;;8.20;79.10;;;;;;5109537;27;20114;-86
2022/03/08 10:39:34;;;;;;;9.52;4.70;;;8.20;80.50;;;;;;5108505;27;20039;-85
2022/03/08 10:42:00;;;;;;;8.45;4.80;;;8.20;80.60;;;;;;5098733;27;20038;-84
2022/03/08 10:44:44;;;;;;;10.02;4.90;;;8.20;79.20;;;;;;5101520;27;21542;-84
2022/03/08 10:47:12;;;;;;;10.82;5.55;;;8.20;81.40;;;;;;5124454;27;20042;-85
2022/03/08 10:49:55;;;;;;;8.55;4.53;;;8.30;78.20;;;;;;5090451;27;20663;-85
2022/03/08 10:52:30;;;;;;;8.55;4.65;;;8.40;80.10;;;;;;5102824;27;20045;-90
2022/03/08 10:55:22;;;;;;;8.25;4.80;;;8.40;77.40;;;;;;5123504;27;20046;-85
2022/03/08 10:57:54;;;;;;;9.45;5.43;;;8.50;79.30;;;;;;5137953;27;20050;-85
2022/03/08 11:00:29;;;;;;;9.07;4.43;;;8.50;79.00;;;;;;5115563;27;20149;-85
2022/03/08 11:03:09;;;;;;;8.52;4.35;;;8.70;78.80;;;;;;5119028;27;20099;-85
2022/03/08 11:05:37;;;;;;;9.65;4.50;;;8.60;75.40;;;;;;5125392;27;20042;-85
2022/03/08 11:08:05;;;;;;;13.95;4.93;;;8.70;77.50;;;;;;5131153;27;20154;-85
2022/03/08 11:10:32;;;;;;;7.97;4.72;;;8.70;76.40;;;;;;5114357;27;20039;-84
2022/03/08 11:12:59;;;;;;;11.07;4.57;;;8.70;74.00;;;;;;5129858;27;20035;-85
2022/03/08 11:15:27;;;;;;;7.50;4.13;;;8.80;74.40;;;;;;5112376;27;20107;-85
2022/03/08 11:17:54;;;;;;;10.93;4.20;;;8.90;76.30;;;;;;5113207;27;20054;-84
2022/03/08 11:20:22;;;;;;;8.93;4.20;;;9.50;75.40;;;;;;5131763;27;20102;-82
2022/03/08 11:22:51;;;;;;;12.18;4.90;;;9.10;73.00;;;;;;5114392;27;20109;-85
2022/03/08 11:25:18;;;;;;;7.35;4.43;;;9.10;73.00;;;;;;5094754;27;20460;-85
2022/03/08 11:27:46;;;;;;;7.35;4.30;;;9.20;75.90;;;;;;5113164;27;20126;-84
2022/03/08 11:30:19;;;;;;;9.35;4.30;;;9.50;75.60;;;;;;5096589;27;20219;-83
2022/03/08 11:33:22;;;;;;;9.32;4.60;;;9.40;77.20;;;;;;5083303;27;20054;-83
2022/03/08 11:36:00;;;;;;;8.93;4.50;;;9.40;75.50;;;;;;5112868;27;20075;-87
2022/03/08 11:38:25;;;;;;;7.20;3.85;;;9.50;71.70;;;;;;5107948;27;20038;-88
2022/03/08 11:40:54;;;;;;;8.75;3.65;;;9.80;71.70;;;;;;5123184;27;20725;-84
2022/03/08 11:43:35;;;;;;;8.65;4.00;;;9.40;71.10;;;;;;5082442;27;20035;-84
2022/03/08 11:46:14;;;;;;;7.78;3.83;;;9.50;72.00;;;;;;5100838;27;20089;-86
2022/03/08 11:48:55;;;;;;;8.68;3.42;;;9.60;71.20;;;;;;5100992;27;20042;-85
2022/03/08 11:51:23;;;;;;;8.90;3.72;;;10.20;74.40;;;;;;5097956;27;20079;-87
2022/03/08 11:54:06;;;;;;;7.60;3.70;;;9.80;73.30;;;;;;5083502;27;20047;-85
2022/03/08 11:56:46;;;;;;;7.93;4.35;;;9.90;71.40;;;;;;5089529;27;20656;-85
2022/03/08 11:59:12;;;;;;;8.10;4.18;;;9.80;70.90;;;;;;5070221;27;20046;-84
2022/03/08 12:01:38;;;;;;;9.23;4.47;;;9.80;69.40;;;;;;5105010;27;20095;-84
2022/03/08 12:04:12;;;;;;;7.63;4.43;;;9.90;72.40;;;;;;5103560;27;20150;-87
2022/03/08 12:06:40;;;;;;;7.90;3.97;;;10.00;70.60;;;;;;5088480;27;20048;-84
2022/03/08 12:09:15;;;;;;;8.38;4.38;;;10.00;70.80;;;;;;5087750;27;20121;-85
2022/03/08 12:12:00;;;;;;;9.93;4.60;;;10.10;72.50;;;;;;5104050;27;20296;-85
2022/03/08 12:14:32;;;;;;;8.05;4.57;;;10.10;69.30;;;;;;5100586;27;20050;-85
2022/03/08 12:17:19;;;;;;;7.65;4.47;;;10.00;69.40;;;;;;5088023;27;20034;-84
2022/03/08 12:19:54;;;;;;;8.38;4.72;;;10.00;68.30;;;;;;5101727;27;20047;-84
2022/03/08 12:22:24;;;;;;;7.30;4.38;;;10.10;71.80;;;;;;5090705;27;20046;-83
2022/03/08 12:24:57;;;;;;;10.32;4.53;;;10.20;71.40;;;;;;5109626;27;20046;-84
2022/03/08 12:27:50;;;;;;;8.02;4.60;;;10.20;72.50;;;;;;5104609;27;20502;-85
2022/03/08 12:30:16;;;;;;;8.95;4.53;;;10.30;71.00;;;;;;5088885;27;20494;-86
2022/03/08 12:32:43;;;;;;;7.97;4.30;;;10.40;72.10;;;;;;5087491;27;20043;-84
2022/03/08 12:35:12;;;;;;;7.60;4.20;;;10.30;70.10;;;;;;5087279;27;21331;-85
2022/03/08 12:37:52;;;;;;;6.75;4.07;;;10.40;69.30;;;;;;5103702;27;20198;-84
2022/03/08 12:40:18;;;;;;;7.55;4.38;;;10.50;69.60;;;;;;5104205;27;20085;-87
2022/03/08 12:42:59;;;;;;;8.35;4.28;;;10.50;67.80;;;;;;5089245;27;20044;-87